createdAt,value
2022-09-06T00:00:44.119Z,4.40
2022-09-06T00:03:10.819Z,4.13
2022-09-06T00:05:37.805Z,3.95
2022-09-06T00:08:05.868Z,5.03
2022-09-06T00:10:33.027Z,4.55
2022-09-06T00:13:05.236Z,4.20
2022-09-06T00:15:32.543Z,3.92
2022-09-06T00:18:00.987Z,3.80
2022-09-06T00:20:29.043Z,4.03
2022-09-06T00:23:04.624Z,3.80
2022-09-06T00:25:32.064Z,3.97
2022-09-06T00:28:00.815Z,3.50
2022-09-06T00:30:28.700Z,3.53
2022-09-06T00:32:55.528Z,3.25
2022-09-06T00:35:24.867Z,3.10
2022-09-06T00:37:52.587Z,3.20
2022-09-06T00:40:19.279Z,3.10
2022-09-06T00:42:45.972Z,3.20
2022-09-06T00:45:12.781Z,2.92
2022-09-06T00:47:40.907Z,2.83
2022-09-06T00:50:08.466Z,2.70
2022-09-06T00:52:35.471Z,2.70
2022-09-06T00:55:02.367Z,3.00
2022-09-06T00:57:30.974Z,2.72
2022-09-06T00:59:58.316Z,2.53
2022-09-06T01:02:25.036Z,2.40
2022-09-06T01:04:52.889Z,2.70
2022-09-06T01:07:34.565Z,2.60
2022-09-06T01:10:37.287Z,2.65
2022-09-06T01:13:19.313Z,3.85
2022-09-06T01:15:55.454Z,2.75
2022-09-06T01:18:59.481Z,2.70
2022-09-06T01:21:35.211Z,2.63
2022-09-06T01:24:04.777Z,2.90
2022-09-06T01:26:34.508Z,2.70
2022-09-06T01:29:01.138Z,3.50
2022-09-06T01:31:38.967Z,3.45
2022-09-06T01:34:08.732Z,3.45
2022-09-06T01:37:08.815Z,4.88
2022-09-06T01:39:37.005Z,9.30
2022-09-06T01:42:18.972Z,7.45
2022-09-06T01:44:53.113Z,6.30
2022-09-06T01:47:52.846Z,5.10
2022-09-06T01:51:10.820Z,3.05
2022-09-06T01:53:51.154Z,3.58
2022-09-06T01:56:37.535Z,3.22
2022-09-06T01:59:22.852Z,3.07
2022-09-06T02:02:16.972Z,2.80
2022-09-06T02:05:12.584Z,2.73
2022-09-06T02:07:40.392Z,3.13
2022-09-06T02:10:25.082Z,2.80
2022-09-06T02:12:54.053Z,3.20
2022-09-06T02:15:24.658Z,3.67
2022-09-06T02:17:58.806Z,4.82
2022-09-06T02:20:27.477Z,4.13
2022-09-06T02:22:56.617Z,4.10
2022-09-06T02:25:37.078Z,4.18
2022-09-06T02:28:04.020Z,3.05
2022-09-06T02:30:31.857Z,3.20
2022-09-06T02:33:01.751Z,3.00
2022-09-06T02:35:28.558Z,2.88
2022-09-06T02:37:56.487Z,3.13
2022-09-06T02:40:23.342Z,2.75
2022-09-06T02:42:50.003Z,2.70
2022-09-06T02:45:16.631Z,3.00
2022-09-06T02:47:43.266Z,2.75
2022-09-06T02:50:10.038Z,2.70
2022-09-06T02:52:36.669Z,2.65
2022-09-06T02:55:03.379Z,2.40
2022-09-06T02:57:30.016Z,2.83
2022-09-06T02:59:56.634Z,2.75
2022-09-06T03:02:23.359Z,2.80
2022-09-06T03:04:50.072Z,3.40
2022-09-06T03:07:16.740Z,3.10
2022-09-06T03:09:43.401Z,3.45
2022-09-06T03:12:10.040Z,3.17
2022-09-06T03:14:36.677Z,3.67
2022-09-06T03:17:04.306Z,3.53
2022-09-06T03:19:31.021Z,3.73
2022-09-06T03:21:57.656Z,3.65
2022-09-06T03:24:24.284Z,3.80
2022-09-06T03:26:51.978Z,3.60
2022-09-06T03:29:18.713Z,3.47
2022-09-06T03:31:45.374Z,3.10
2022-09-06T03:34:12.020Z,3.60
2022-09-06T03:36:38.779Z,3.50
2022-09-06T03:39:06.779Z,3.40
2022-09-06T03:41:33.453Z,3.50
2022-09-06T03:44:00.138Z,3.60
2022-09-06T03:46:30.552Z,3.60
2022-09-06T03:48:58.084Z,3.60
2022-09-06T03:51:25.004Z,3.60
2022-09-06T03:53:51.744Z,3.50
2022-09-06T03:56:18.371Z,3.60
2022-09-06T03:58:44.986Z,3.30
2022-09-06T04:01:12.802Z,3.77
2022-09-06T04:03:40.057Z,3.47
2022-09-06T04:06:07.301Z,3.63
2022-09-06T04:08:36.704Z,4.10
2022-09-06T04:11:04.319Z,3.70
2022-09-06T04:13:31.485Z,3.63
2022-09-06T04:15:58.352Z,4.07
2022-09-06T04:18:25.096Z,4.03
2022-09-06T04:20:53.954Z,3.90
2022-09-06T04:23:20.952Z,3.73
2022-09-06T04:25:52.778Z,4.10
2022-09-06T04:28:20.827Z,3.63
2022-09-06T04:30:55.294Z,3.60
2022-09-06T04:33:26.021Z,4.20
2022-09-06T04:35:58.376Z,3.90
2022-09-06T04:38:26.655Z,3.67
2022-09-06T04:40:55.592Z,3.93
2022-09-06T04:43:23.107Z,4.17
2022-09-06T04:45:50.180Z,4.27
2022-09-06T04:48:16.956Z,4.20
2022-09-06T04:50:43.717Z,4.10
2022-09-06T04:53:11.157Z,4.50
2022-09-06T04:55:38.237Z,4.23
2022-09-06T04:58:05.915Z,4.03
2022-09-06T05:00:34.091Z,3.90
2022-09-06T05:03:00.732Z,4.23
2022-09-06T05:05:27.578Z,4.13
2022-09-06T05:07:55.114Z,4.40
2022-09-06T05:10:22.834Z,4.70
2022-09-06T05:12:51.160Z,4.70
2022-09-06T05:15:18.731Z,3.87
2022-09-06T05:17:45.348Z,4.37
2022-09-06T05:20:12.770Z,4.23
2022-09-06T05:22:40.105Z,4.50
2022-09-06T05:25:07.857Z,4.70
2022-09-06T05:27:34.484Z,4.00
2022-09-06T05:30:01.125Z,4.47
2022-09-06T05:32:27.738Z,4.20
2022-09-06T05:34:54.399Z,4.30
2022-09-06T05:37:21.057Z,4.40
2022-09-06T05:39:47.761Z,4.47
2022-09-06T05:42:19.032Z,4.80
2022-09-06T05:44:46.047Z,4.57
2022-09-06T05:47:12.672Z,4.67
2022-09-06T05:49:39.365Z,4.43
2022-09-06T05:52:06.031Z,4.23
2022-09-06T05:54:32.690Z,4.70
2022-09-06T05:56:59.371Z,4.93
2022-09-06T05:59:26.586Z,4.20
2022-09-06T06:01:53.893Z,4.70
2022-09-06T06:04:21.804Z,4.53
2022-09-06T06:06:49.484Z,5.13
2022-09-06T06:09:17.356Z,4.60
2022-09-06T06:11:44.104Z,4.87
2022-09-06T06:14:10.740Z,4.70
2022-09-06T06:16:37.598Z,4.80
2022-09-06T06:19:04.276Z,4.80
2022-09-06T06:21:32.254Z,4.80
2022-09-06T06:24:01.175Z,4.57
2022-09-06T06:26:29.988Z,4.30
2022-09-06T06:28:58.996Z,4.70
2022-09-06T06:31:25.737Z,4.87
2022-09-06T06:33:52.592Z,4.47
2022-09-06T06:36:21.862Z,4.30
2022-09-06T06:38:49.774Z,5.30
2022-09-06T06:41:18.833Z,4.67
2022-09-06T06:43:45.740Z,5.00
2022-09-06T06:46:17.588Z,4.90
2022-09-06T06:48:45.191Z,4.67
2022-09-06T06:51:17.003Z,4.40
2022-09-06T06:53:50.152Z,4.93
2022-09-06T06:56:27.901Z,4.70
2022-09-06T06:58:57.543Z,4.57
2022-09-06T07:01:24.945Z,4.50
2022-09-06T07:03:51.826Z,4.80
2022-09-06T07:06:19.430Z,3.90
2022-09-06T07:08:47.685Z,4.40
2022-09-06T07:11:17.822Z,4.40
2022-09-06T07:13:45.467Z,4.23
2022-09-06T07:16:23.543Z,4.40
2022-09-06T07:18:54.766Z,4.10
2022-09-06T07:21:42.543Z,4.00
2022-09-06T07:24:10.243Z,3.87
2022-09-06T07:26:38.824Z,4.03
2022-09-06T07:29:06.407Z,4.00
2022-09-06T07:34:21.001Z,3.70
2022-09-06T07:36:48.579Z,3.50
2022-09-06T07:39:15.436Z,3.40
2022-09-06T07:41:43.151Z,3.30
2022-09-06T07:44:09.823Z,3.73
2022-09-06T07:46:36.514Z,3.33
2022-09-06T07:49:06.722Z,3.23
2022-09-06T07:51:33.420Z,3.27
2022-09-06T07:54:28.734Z,3.40
2022-09-06T07:56:46.693Z,3.10
2022-09-06T07:59:13.621Z,3.00
2022-09-06T08:01:40.969Z,2.90
2022-09-06T08:04:15.684Z,2.73
2022-09-06T08:09:37.669Z,2.70
2022-09-06T08:12:07.474Z,2.60
2022-09-06T08:14:34.632Z,2.30
2022-09-06T08:17:02.110Z,2.77
2022-09-06T08:19:28.746Z,2.40
2022-09-06T08:21:55.843Z,2.37
2022-09-06T08:24:25.376Z,2.63
2022-09-06T08:26:52.084Z,2.30
2022-09-06T08:29:20.080Z,2.60
2022-09-06T08:31:47.384Z,2.80
2022-09-06T08:34:15.300Z,2.70
2022-09-06T08:36:42.541Z,2.47
2022-09-06T08:39:12.511Z,2.30
2022-09-06T08:41:42.092Z,2.73
2022-09-06T08:47:16.523Z,2.60
2022-09-06T08:49:46.347Z,2.47
2022-09-06T08:52:45.400Z,2.70
2022-09-06T08:55:16.396Z,2.60
2022-09-06T08:57:52.100Z,2.57
2022-09-06T09:00:19.853Z,2.70
2022-09-06T09:02:55.318Z,2.45
2022-09-06T09:05:29.133Z,2.45
2022-09-06T09:08:08.386Z,2.53
2022-09-06T09:10:41.756Z,2.50
2022-09-06T09:13:09.806Z,2.60
2022-09-06T09:15:40.331Z,2.45
2022-09-06T09:18:07.353Z,2.38
2022-09-06T09:20:34.043Z,2.50
2022-09-06T09:23:01.909Z,2.72
2022-09-06T09:25:32.301Z,2.45
2022-09-06T09:27:59.128Z,2.53
2022-09-06T09:33:22.768Z,2.60
2022-09-06T09:35:49.818Z,2.20
2022-09-06T09:38:40.919Z,2.40
2022-09-06T09:41:07.933Z,2.13
2022-09-06T09:43:39.947Z,2.22
2022-09-06T09:46:29.896Z,2.40
2022-09-06T09:49:00.309Z,2.25
2022-09-06T09:51:28.160Z,2.20
2022-09-06T09:54:04.907Z,2.17
2022-09-06T09:56:38.893Z,2.05
2022-09-06T09:59:17.284Z,2.20
2022-09-06T10:01:43.992Z,2.28
2022-09-06T10:07:18.964Z,2.10
2022-09-06T10:09:48.208Z,2.10
2022-09-06T10:12:19.970Z,2.00
2022-09-06T10:14:49.046Z,2.10
2022-09-06T10:17:36.534Z,2.38
2022-09-06T10:20:15.124Z,2.10
2022-09-06T10:23:02.113Z,2.20
2022-09-06T10:25:46.311Z,2.30
2022-09-06T10:28:39.172Z,2.20
2022-09-06T10:31:14.844Z,2.65
2022-09-06T10:33:56.997Z,2.38
2022-09-06T10:36:38.243Z,2.30
2022-09-06T10:39:27.110Z,2.33
2022-09-06T10:41:54.585Z,2.83
2022-09-06T10:44:39.928Z,2.60
2022-09-06T10:47:14.864Z,2.35
2022-09-06T10:49:45.465Z,2.30
2022-09-06T10:52:17.589Z,2.58
2022-09-06T10:54:47.381Z,2.30
2022-09-06T11:00:14.528Z,3.00
2022-09-06T11:05:53.963Z,2.60
2022-09-06T11:08:57.718Z,2.38
2022-09-06T11:11:35.698Z,3.53
2022-09-06T11:14:07.954Z,2.78
2022-09-06T11:16:40.081Z,2.60
2022-09-06T11:19:11.327Z,2.50
2022-09-06T11:21:47.063Z,2.38
2022-09-06T11:24:29.282Z,2.60
2022-09-06T11:27:20.963Z,3.03
2022-09-06T11:29:56.394Z,3.08
2022-09-06T11:32:48.643Z,2.53
2022-09-06T11:35:41.640Z,2.17
2022-09-06T11:38:14.384Z,2.33
2022-09-06T11:40:43.358Z,2.40
2022-09-06T11:43:13.580Z,2.50
2022-09-06T11:45:51.642Z,2.58
2022-09-06T11:48:24.382Z,2.58
2022-09-06T11:50:54.074Z,2.35
2022-09-06T11:53:22.414Z,2.58
2022-09-06T11:56:01.347Z,2.13
2022-09-06T11:58:40.282Z,2.42
2022-09-06T12:01:13.265Z,2.70
2022-09-06T12:06:33.405Z,2.20
2022-09-06T12:09:00.354Z,2.42
2022-09-06T12:11:36.515Z,2.15
2022-09-06T12:14:29.215Z,3.15
2022-09-06T12:16:55.792Z,2.58
2022-09-06T12:19:44.656Z,2.85
2022-09-06T12:22:38.882Z,2.63
2022-09-06T12:25:34.544Z,2.40
2022-09-06T12:28:03.293Z,3.65
2022-09-06T12:30:44.681Z,2.30
2022-09-06T12:33:15.060Z,2.53
2022-09-06T12:35:57.673Z,2.30
2022-09-06T12:38:25.852Z,2.67
2022-09-06T12:40:56.555Z,2.45
2022-09-06T12:43:27.084Z,2.25
2022-09-06T12:45:53.795Z,2.22
2022-09-06T12:49:01.347Z,2.50
2022-09-06T12:51:28.209Z,2.53
2022-09-06T12:54:20.389Z,2.55
2022-09-06T12:56:47.028Z,2.70
2022-09-06T12:59:19.565Z,2.58
2022-09-06T13:02:12.142Z,2.17
2022-09-06T13:04:42.637Z,2.42
2022-09-06T13:07:12.325Z,2.22
2022-09-06T13:09:42.922Z,2.25
2022-09-06T13:12:29.710Z,2.10
2022-09-06T13:14:57.763Z,2.10
2022-09-06T13:17:29.814Z,2.20
2022-09-06T13:19:58.265Z,1.90
2022-09-06T13:22:46.278Z,1.85
2022-09-06T13:25:17.614Z,2.28
2022-09-06T13:27:52.704Z,2.05
2022-09-06T13:30:42.509Z,2.40
2022-09-06T13:33:24.154Z,1.95
2022-09-06T13:36:04.274Z,2.10
2022-09-06T13:38:41.423Z,1.80
2022-09-06T13:41:27.970Z,2.00
2022-09-06T13:44:01.806Z,4.10
2022-09-06T13:46:28.544Z,3.30
2022-09-06T13:48:58.629Z,2.85
2022-09-06T13:51:29.817Z,2.38
2022-09-06T13:54:15.847Z,1.98
2022-09-06T13:56:44.832Z,2.10
2022-09-06T13:59:12.158Z,2.58
2022-09-06T14:01:40.875Z,2.72
2022-09-06T14:04:07.960Z,1.90
2022-09-06T14:06:37.093Z,1.85
2022-09-06T14:09:08.438Z,2.30
2022-09-06T14:11:36.225Z,2.10
2022-09-06T14:14:02.989Z,2.00
2022-09-06T14:16:30.248Z,2.00
2022-09-06T14:18:57.047Z,1.77
2022-09-06T14:21:24.108Z,1.90
2022-09-06T14:23:51.674Z,1.73
2022-09-06T14:26:19.936Z,1.95
2022-09-06T14:28:46.867Z,2.03
2022-09-06T14:31:15.916Z,1.67
2022-09-06T14:33:43.145Z,1.77
2022-09-06T14:36:13.086Z,1.67
2022-09-06T14:38:40.981Z,1.65
2022-09-06T14:41:08.833Z,1.60
2022-09-06T14:43:36.441Z,1.60
2022-09-06T14:46:05.341Z,1.73
2022-09-06T14:48:32.779Z,1.48
2022-09-06T14:51:07.779Z,1.58
2022-09-06T14:53:40.385Z,1.50
2022-09-06T14:56:08.235Z,1.60
2022-09-06T14:58:37.587Z,1.50
2022-09-06T15:01:14.716Z,1.73
2022-09-06T15:03:43.216Z,1.90
2022-09-06T15:06:10.848Z,1.92
2022-09-06T15:08:38.122Z,1.75
2022-09-06T15:11:08.211Z,1.77
2022-09-06T15:13:41.617Z,1.80
2022-09-06T15:16:10.338Z,1.67
2022-09-06T15:18:37.144Z,1.77
2022-09-06T15:21:17.943Z,1.90
2022-09-06T15:23:44.882Z,1.90
2022-09-06T15:26:13.764Z,1.92
2022-09-06T15:28:42.233Z,1.85
2022-09-06T15:31:09.811Z,1.80
2022-09-06T15:33:37.438Z,1.90
2022-09-06T15:36:08.004Z,2.28
2022-09-06T15:38:36.655Z,2.10
2022-09-06T15:41:08.382Z,1.80
2022-09-06T15:43:47.030Z,1.50
2022-09-06T15:46:23.800Z,1.63
2022-09-06T15:48:53.677Z,1.50
2022-09-06T15:51:21.496Z,1.52
2022-09-06T15:53:48.290Z,1.45
2022-09-06T15:56:16.639Z,1.70
2022-09-06T15:58:45.811Z,2.00
2022-09-06T16:01:22.696Z,1.73
2022-09-06T16:03:55.125Z,1.67
2022-09-06T16:08:52.683Z,2.05
2022-09-06T16:11:19.740Z,1.70
2022-09-06T16:13:46.547Z,1.70
2022-09-06T16:16:15.255Z,2.30
2022-09-06T16:18:44.071Z,1.92
2022-09-06T16:21:13.728Z,1.75
2022-09-06T16:23:41.939Z,2.17
2022-09-06T16:26:09.412Z,2.08
2022-09-06T16:28:37.416Z,2.17
2022-09-06T16:31:07.309Z,2.15
2022-09-06T16:33:35.315Z,2.38
2022-09-06T16:36:03.853Z,2.13
2022-09-06T16:38:35.166Z,2.15
2022-09-06T16:41:17.327Z,2.10
2022-09-06T16:43:45.149Z,2.20
2022-09-06T16:46:12.914Z,2.00
2022-09-06T16:48:43.038Z,1.80
2022-09-06T16:51:17.764Z,1.92
2022-09-06T16:53:48.424Z,1.92
2022-09-06T16:56:17.374Z,1.90
2022-09-06T16:58:49.872Z,2.10
2022-09-06T17:01:16.685Z,2.10
2022-09-06T17:03:43.728Z,3.92
2022-09-06T17:06:10.352Z,2.47
2022-09-06T17:08:37.106Z,2.10
2022-09-06T17:11:05.777Z,2.00
2022-09-06T17:13:33.137Z,1.90
2022-09-06T17:16:22.102Z,2.20
2022-09-06T17:18:49.569Z,2.65
2022-09-06T17:21:16.481Z,2.53
2022-09-06T17:23:43.650Z,2.80
2022-09-06T17:26:10.648Z,3.05
2022-09-06T17:28:38.482Z,3.13
2022-09-06T17:31:05.859Z,3.15
2022-09-06T17:33:33.344Z,2.53
2022-09-06T17:36:08.660Z,3.60
2022-09-06T17:38:35.406Z,3.13
2022-09-06T17:41:02.511Z,2.72
2022-09-06T17:43:29.477Z,3.28
2022-09-06T17:45:56.333Z,2.92
2022-09-06T17:48:25.301Z,2.80
2022-09-06T17:50:53.577Z,2.60
2022-09-06T17:53:20.268Z,2.92
2022-09-06T17:55:47.023Z,3.33
2022-09-06T17:58:13.791Z,3.10
2022-09-06T18:00:42.353Z,3.17
2022-09-06T18:03:09.099Z,4.10
2022-09-06T18:05:43.028Z,3.40
2022-09-06T18:08:09.765Z,3.67
2022-09-06T18:10:37.926Z,3.60
2022-09-06T18:13:05.340Z,3.00
2022-09-06T18:15:33.128Z,3.33
2022-09-06T18:17:59.908Z,3.97
2022-09-06T18:20:29.761Z,3.47
2022-09-06T18:22:56.482Z,4.45
2022-09-06T18:25:23.229Z,4.30
2022-09-06T18:27:49.888Z,4.53
2022-09-06T18:30:16.772Z,4.43
2022-09-06T18:32:45.504Z,4.78
2022-09-06T18:35:12.350Z,4.30
2022-09-06T18:37:39.018Z,3.92
2022-09-06T18:40:06.674Z,3.92
2022-09-06T18:42:33.698Z,4.53
2022-09-06T18:45:00.460Z,4.00
2022-09-06T18:47:27.208Z,3.65
2022-09-06T18:49:54.140Z,3.30
2022-09-06T18:52:21.093Z,3.17
2022-09-06T18:54:49.130Z,3.65
2022-09-06T18:57:17.319Z,4.60
2022-09-06T18:59:44.731Z,4.25
2022-09-06T19:02:11.567Z,4.18
2022-09-06T19:04:38.469Z,3.97
2022-09-06T19:07:05.174Z,3.80
2022-09-06T19:09:31.885Z,3.85
2022-09-06T19:11:58.602Z,3.05
2022-09-06T19:14:25.413Z,3.47
2022-09-06T19:16:54.247Z,3.50
2022-09-06T19:19:22.070Z,3.15
2022-09-06T19:21:48.745Z,2.95
2022-09-06T19:24:16.399Z,3.80
2022-09-06T19:26:44.259Z,3.72
2022-09-06T19:29:16.007Z,3.80
2022-09-06T19:31:43.766Z,3.55
2022-09-06T19:34:12.290Z,3.63
2022-09-06T19:36:39.526Z,3.50
2022-09-06T19:39:08.825Z,3.13
2022-09-06T19:41:43.116Z,3.10
2022-09-06T19:44:11.132Z,3.30
2022-09-06T19:46:40.094Z,3.50
2022-09-06T19:49:08.911Z,3.10
2022-09-06T19:51:36.931Z,3.10
2022-09-06T19:54:04.223Z,3.33
2022-09-06T19:56:33.825Z,3.20
2022-09-06T19:59:03.418Z,3.42
2022-09-06T20:01:32.698Z,3.33
2022-09-06T20:04:00.739Z,3.72
2022-09-06T20:06:27.488Z,3.97
2022-09-06T20:08:56.509Z,3.60
2022-09-06T20:11:25.907Z,3.10
2022-09-06T20:13:53.036Z,3.45
2022-09-06T20:16:20.941Z,3.70
2022-09-06T20:18:48.593Z,3.47
2022-09-06T20:21:17.989Z,3.30
2022-09-06T20:23:51.585Z,3.65
2022-09-06T20:26:19.038Z,3.22
2022-09-06T20:28:47.367Z,2.88
2022-09-06T20:31:20.744Z,3.08
2022-09-06T20:33:49.823Z,3.13
2022-09-06T20:36:17.488Z,3.28
2022-09-06T20:38:45.207Z,3.10
2022-09-06T20:41:20.619Z,3.38
2022-09-06T20:43:57.721Z,3.47
2022-09-06T20:46:27.137Z,3.00
2022-09-06T20:48:59.847Z,3.17
2022-09-06T20:51:26.602Z,2.95
2022-09-06T20:53:58.181Z,2.90
2022-09-06T20:56:29.693Z,4.50
2022-09-06T20:58:59.599Z,3.88
2022-09-06T21:01:29.614Z,2.95
2022-09-06T21:03:58.554Z,3.20
2022-09-06T21:06:27.296Z,3.30
2022-09-06T21:08:57.836Z,3.30
2022-09-06T21:11:24.879Z,2.97
2022-09-06T21:13:53.515Z,2.97
2022-09-06T21:16:24.594Z,3.25
2022-09-06T21:19:02.080Z,3.00
2022-09-06T21:21:30.680Z,2.95
2022-09-06T21:23:57.394Z,3.05
2022-09-06T21:26:24.118Z,2.53
2022-09-06T21:28:50.851Z,2.42
2022-09-06T21:31:24.423Z,2.63
2022-09-06T21:34:03.681Z,2.47
2022-09-06T21:36:33.074Z,2.30
2022-09-06T21:39:03.041Z,2.35
2022-09-06T21:41:30.971Z,2.33
2022-09-06T21:43:59.726Z,2.30
2022-09-06T21:46:33.433Z,2.10
2022-09-06T21:49:05.385Z,2.33
2022-09-06T21:51:32.717Z,1.85
2022-09-06T21:54:03.233Z,2.30
2022-09-06T21:56:30.268Z,2.00
2022-09-06T21:58:58.339Z,2.30
2022-09-06T22:01:26.802Z,2.17
2022-09-06T22:03:53.745Z,2.00
2022-09-06T22:06:24.888Z,2.05
2022-09-06T22:08:52.367Z,2.13
2022-09-06T22:11:24.666Z,2.40
2022-09-06T22:13:52.143Z,2.25
2022-09-06T22:16:21.872Z,2.10
2022-09-06T22:18:49.420Z,2.00
2022-09-06T22:21:21.238Z,2.05
2022-09-06T22:23:52.275Z,2.05
2022-09-06T22:26:19.648Z,1.70
2022-09-06T22:28:46.993Z,2.00
2022-09-06T22:31:14.034Z,1.70
2022-09-06T22:33:40.851Z,2.00
2022-09-06T22:36:07.734Z,1.90
2022-09-06T22:38:35.024Z,1.70
2022-09-06T22:41:01.869Z,2.00
2022-09-06T22:43:28.524Z,1.77
2022-09-06T22:46:11.108Z,1.83
2022-09-06T22:48:37.957Z,1.95
2022-09-06T22:51:06.201Z,1.83
2022-09-06T22:53:33.464Z,1.80
2022-09-06T22:56:01.452Z,2.20
2022-09-06T22:58:28.311Z,1.73
2022-09-06T23:00:55.672Z,2.00
2022-09-06T23:03:22.428Z,1.75
2022-09-06T23:05:49.389Z,1.80
2022-09-06T23:08:16.333Z,2.00
2022-09-06T23:10:44.016Z,1.73
2022-09-06T23:13:11.356Z,1.70
2022-09-06T23:15:40.887Z,1.80
2022-09-06T23:18:08.551Z,1.80
2022-09-06T23:20:37.146Z,1.80
2022-09-06T23:23:07.451Z,1.98
2022-09-06T23:25:38.894Z,1.70
2022-09-06T23:28:05.958Z,6.00
2022-09-06T23:30:32.637Z,16.67
2022-09-06T23:32:59.290Z,3.83
2022-09-06T23:35:25.944Z,2.20
2022-09-06T23:37:53.547Z,2.50
2022-09-06T23:40:20.344Z,2.10
2022-09-06T23:42:47.523Z,2.20
2022-09-06T23:45:14.454Z,1.73
2022-09-06T23:47:41.738Z,1.70
2022-09-06T23:50:09.133Z,1.83
2022-09-06T23:52:36.044Z,1.47
2022-09-06T23:55:03.202Z,1.63
2022-09-06T23:57:30.160Z,1.63
2022-09-06T23:59:56.784Z,1.70
